sensor_id;sensor_type;location;lat;lon;timestamp;P1;durP1;ratioP1;P2;durP2;ratioP2
57335;SDS011;43171;50.994;18.204;2023-05-19T00:02:11;7.90;;;4.90;;
57335;SDS011;43171;50.994;18.204;2023-05-19T00:11:58;7.20;;;5.00;;
57335;SDS011;43171;50.994;18.204;2023-05-19T00:21:41;4.30;;;3.50;;
57335;SDS011;43171;50.994;18.204;2023-05-19T00:31:25;2.20;;;2.00;;
57335;SDS011;43171;50.994;18.204;2023-05-19T00:33:50;9.00;;;5.30;;
57335;SDS011;43171;50.994;18.204;2023-05-19T00:43:32;4.10;;;2.50;;
57335;SDS011;43171;50.994;18.204;2023-05-19T00:53:19;4.70;;;3.60;;
57335;SDS011;43171;50.994;18.204;2023-05-19T01:03:03;4.50;;;4.10;;
57335;SDS011;43171;50.994;18.204;2023-05-19T01:12:54;3.10;;;2.90;;
57335;SDS011;43171;50.994;18.204;2023-05-19T01:23:16;3.50;;;2.70;;
57335;SDS011;43171;50.994;18.204;2023-05-19T01:33:20;4.70;;;3.10;;
57335;SDS011;43171;50.994;18.204;2023-05-19T01:43:06;1.40;;;1.30;;
57335;SDS011;43171;50.994;18.204;2023-05-19T01:52:53;2.40;;;2.20;;
57335;SDS011;43171;50.994;18.204;2023-05-19T02:03:45;2.60;;;2.10;;
57335;SDS011;43171;50.994;18.204;2023-05-19T02:13:48;1.90;;;1.70;;
57335;SDS011;43171;50.994;18.204;2023-05-19T02:23:38;5.10;;;2.40;;
57335;SDS011;43171;50.994;18.204;2023-05-19T02:33:25;2.60;;;1.40;;
57335;SDS011;43171;50.994;18.204;2023-05-19T02:43:09;3.90;;;2.30;;
57335;SDS011;43171;50.994;18.204;2023-05-19T02:52:51;2.10;;;1.40;;
57335;SDS011;43171;50.994;18.204;2023-05-19T03:02:35;2.10;;;1.20;;
57335;SDS011;43171;50.994;18.204;2023-05-19T03:12:19;3.80;;;1.60;;
57335;SDS011;43171;50.994;18.204;2023-05-19T03:22:02;1.30;;;1.20;;
57335;SDS011;43171;50.994;18.204;2023-05-19T03:31:44;2.10;;;1.80;;
57335;SDS011;43171;50.994;18.204;2023-05-19T03:34:10;5.50;;;3.20;;
57335;SDS011;43171;50.994;18.204;2023-05-19T03:43:55;1.40;;;1.30;;
57335;SDS011;43171;50.994;18.204;2023-05-19T03:53:37;1.90;;;1.30;;
57335;SDS011;43171;50.994;18.204;2023-05-19T03:56:03;5.10;;;3.40;;
57335;SDS011;43171;50.994;18.204;2023-05-19T04:05:46;2.60;;;2.00;;
57335;SDS011;43171;50.994;18.204;2023-05-19T04:15:28;4.00;;;2.50;;
57335;SDS011;43171;50.994;18.204;2023-05-19T04:17:54;7.40;;;4.10;;
57335;SDS011;43171;50.994;18.204;2023-05-19T04:27:36;2.90;;;2.30;;
57335;SDS011;43171;50.994;18.204;2023-05-19T04:37:23;2.00;;;1.50;;
57335;SDS011;43171;50.994;18.204;2023-05-19T04:47:15;1.80;;;1.60;;
57335;SDS011;43171;50.994;18.204;2023-05-19T04:57:01;2.70;;;2.00;;
57335;SDS011;43171;50.994;18.204;2023-05-19T05:06:43;2.70;;;1.70;;
57335;SDS011;43171;50.994;18.204;2023-05-19T05:16:33;0.70;;;0.40;;
57335;SDS011;43171;50.994;18.204;2023-05-19T05:26:18;3.50;;;1.90;;
57335;SDS011;43171;50.994;18.204;2023-05-19T05:36:02;3.50;;;2.40;;
57335;SDS011;43171;50.994;18.204;2023-05-19T05:45:46;1.40;;;1.30;;
57335;SDS011;43171;50.994;18.204;2023-05-19T05:55:30;2.80;;;1.90;;
57335;SDS011;43171;50.994;18.204;2023-05-19T06:05:15;3.80;;;1.80;;
57335;SDS011;43171;50.994;18.204;2023-05-19T06:15:00;2.70;;;1.80;;
57335;SDS011;43171;50.994;18.204;2023-05-19T06:24:43;4.80;;;2.20;;
57335;SDS011;43171;50.994;18.204;2023-05-19T06:27:09;5.20;;;3.60;;
57335;SDS011;43171;50.994;18.204;2023-05-19T06:36:51;3.60;;;2.30;;
57335;SDS011;43171;50.994;18.204;2023-05-19T06:39:17;5.10;;;3.80;;
57335;SDS011;43171;50.994;18.204;2023-05-19T06:48:59;2.30;;;2.00;;
57335;SDS011;43171;50.994;18.204;2023-05-19T06:53:50;5.40;;;3.70;;
57335;SDS011;43171;50.994;18.204;2023-05-19T07:03:34;2.50;;;2.30;;
57335;SDS011;43171;50.994;18.204;2023-05-19T07:13:17;3.60;;;2.60;;
57335;SDS011;43171;50.994;18.204;2023-05-19T07:23:00;1.40;;;1.30;;
57335;SDS011;43171;50.994;18.204;2023-05-19T07:32:45;3.30;;;2.50;;
57335;SDS011;43171;50.994;18.204;2023-05-19T07:42:28;8.40;;;2.40;;
57335;SDS011;43171;50.994;18.204;2023-05-19T07:52:11;2.70;;;2.30;;
57335;SDS011;43171;50.994;18.204;2023-05-19T08:01:53;4.80;;;3.00;;
57335;SDS011;43171;50.994;18.204;2023-05-19T08:11:36;9.40;;;3.00;;
57335;SDS011;43171;50.994;18.204;2023-05-19T08:21:37;5.00;;;3.00;;
57335;SDS011;43171;50.994;18.204;2023-05-19T08:31:20;3.00;;;2.70;;
57335;SDS011;43171;50.994;18.204;2023-05-19T08:41:02;4.30;;;2.90;;
57335;SDS011;43171;50.994;18.204;2023-05-19T08:51:00;5.30;;;4.20;;
57335;SDS011;43171;50.994;18.204;2023-05-19T08:58:46;8.20;;;5.40;;
57335;SDS011;43171;50.994;18.204;2023-05-19T09:03:43;7.70;;;5.40;;
57335;SDS011;43171;50.994;18.204;2023-05-19T09:13:30;4.00;;;1.60;;
57335;SDS011;43171;50.994;18.204;2023-05-19T09:30:36;6.60;;;4.70;;
57335;SDS011;43171;50.994;18.204;2023-05-19T09:40:19;8.20;;;4.50;;
57335;SDS011;43171;50.994;18.204;2023-05-19T09:50:05;6.10;;;4.60;;
57335;SDS011;43171;50.994;18.204;2023-05-19T10:00:05;6.20;;;4.60;;
57335;SDS011;43171;50.994;18.204;2023-05-19T10:10:06;6.30;;;4.20;;
57335;SDS011;43171;50.994;18.204;2023-05-19T10:19:50;6.40;;;4.20;;
57335;SDS011;43171;50.994;18.204;2023-05-19T10:29:36;5.90;;;4.30;;
57335;SDS011;43171;50.994;18.204;2023-05-19T10:39:46;5.50;;;4.20;;
57335;SDS011;43171;50.994;18.204;2023-05-19T10:49:36;6.40;;;4.80;;
57335;SDS011;43171;50.994;18.204;2023-05-19T10:59:35;6.40;;;3.90;;
57335;SDS011;43171;50.994;18.204;2023-05-19T11:09:33;5.10;;;4.50;;
57335;SDS011;43171;50.994;18.204;2023-05-19T11:19:29;4.40;;;4.00;;
57335;SDS011;43171;50.994;18.204;2023-05-19T11:29:55;5.60;;;4.40;;
57335;SDS011;43171;50.994;18.204;2023-05-19T11:40:00;4.90;;;3.70;;
57335;SDS011;43171;50.994;18.204;2023-05-19T11:49:49;13.10;;;4.50;;
57335;SDS011;43171;50.994;18.204;2023-05-19T11:59:35;3.30;;;3.00;;
57335;SDS011;43171;50.994;18.204;2023-05-19T12:09:30;6.60;;;3.60;;
57335;SDS011;43171;50.994;18.204;2023-05-19T12:11:56;7.90;;;5.20;;
57335;SDS011;43171;50.994;18.204;2023-05-19T12:21:41;3.60;;;2.90;;
57335;SDS011;43171;50.994;18.204;2023-05-19T12:31:24;2.10;;;1.90;;
57335;SDS011;43171;50.994;18.204;2023-05-19T12:41:09;3.90;;;3.40;;
57335;SDS011;43171;50.994;18.204;2023-05-19T12:51:06;7.60;;;3.90;;
57335;SDS011;43171;50.994;18.204;2023-05-19T13:00:48;4.10;;;3.40;;
57335;SDS011;43171;50.994;18.204;2023-05-19T13:10:35;5.00;;;2.50;;
57335;SDS011;43171;50.994;18.204;2023-05-19T13:20:21;3.90;;;3.50;;
57335;SDS011;43171;50.994;18.204;2023-05-19T13:30:05;8.50;;;5.00;;
57335;SDS011;43171;50.994;18.204;2023-05-19T13:39:50;4.90;;;4.40;;
57335;SDS011;43171;50.994;18.204;2023-05-19T13:49:33;4.10;;;3.70;;
57335;SDS011;43171;50.994;18.204;2023-05-19T13:59:15;5.50;;;5.00;;
57335;SDS011;43171;50.994;18.204;2023-05-19T14:09:02;6.50;;;4.40;;
57335;SDS011;43171;50.994;18.204;2023-05-19T14:18:47;4.00;;;3.60;;
57335;SDS011;43171;50.994;18.204;2023-05-19T14:35:46;6.50;;;5.30;;
57335;SDS011;43171;50.994;18.204;2023-05-19T14:45:31;13.80;;;5.80;;
57335;SDS011;43171;50.994;18.204;2023-05-19T14:55:13;6.60;;;5.30;;
57335;SDS011;43171;50.994;18.204;2023-05-19T15:04:56;9.30;;;7.30;;
57335;SDS011;43171;50.994;18.204;2023-05-19T15:14:39;12.80;;;6.90;;
57335;SDS011;43171;50.994;18.204;2023-05-19T15:24:22;8.70;;;6.10;;
57335;SDS011;43171;50.994;18.204;2023-05-19T15:31:39;19.60;;;15.30;;
57335;SDS011;43171;50.994;18.204;2023-05-19T15:41:21;13.50;;;9.60;;
57335;SDS011;43171;50.994;18.204;2023-05-19T15:51:05;8.40;;;7.00;;
57335;SDS011;43171;50.994;18.204;2023-05-19T16:00:48;9.60;;;7.60;;
57335;SDS011;43171;50.994;18.204;2023-05-19T16:10:31;9.90;;;8.40;;
57335;SDS011;43171;50.994;18.204;2023-05-19T16:20:13;3.60;;;3.30;;
57335;SDS011;43171;50.994;18.204;2023-05-19T16:29:56;8.80;;;5.60;;
57335;SDS011;43171;50.994;18.204;2023-05-19T16:39:38;8.70;;;7.40;;
57335;SDS011;43171;50.994;18.204;2023-05-19T16:49:21;12.80;;;9.70;;
57335;SDS011;43171;50.994;18.204;2023-05-19T16:59:03;14.70;;;11.00;;
57335;SDS011;43171;50.994;18.204;2023-05-19T17:08:45;17.10;;;11.20;;
57335;SDS011;43171;50.994;18.204;2023-05-19T17:11:10;23.00;;;18.20;;
57335;SDS011;43171;50.994;18.204;2023-05-19T17:20:57;11.10;;;9.30;;
57335;SDS011;43171;50.994;18.204;2023-05-19T17:30:45;9.60;;;7.80;;
57335;SDS011;43171;50.994;18.204;2023-05-19T17:33:11;27.90;;;19.20;;
57335;SDS011;43171;50.994;18.204;2023-05-19T17:42:54;15.20;;;9.90;;
57335;SDS011;43171;50.994;18.204;2023-05-19T17:52:37;10.90;;;8.40;;
57335;SDS011;43171;50.994;18.204;2023-05-19T18:02:22;2.20;;;2.00;;
57335;SDS011;43171;50.994;18.204;2023-05-19T18:12:09;20.80;;;10.30;;
57335;SDS011;43171;50.994;18.204;2023-05-19T18:29:12;14.50;;;11.00;;
57335;SDS011;43171;50.994;18.204;2023-05-19T18:38:58;14.70;;;11.20;;
57335;SDS011;43171;50.994;18.204;2023-05-19T18:48:44;14.70;;;10.20;;
57335;SDS011;43171;50.994;18.204;2023-05-19T18:58:29;16.70;;;9.90;;
57335;SDS011;43171;50.994;18.204;2023-05-19T19:08:22;21.20;;;13.70;;
57335;SDS011;43171;50.994;18.204;2023-05-19T19:18:07;16.60;;;11.50;;
57335;SDS011;43171;50.994;18.204;2023-05-19T19:27:52;13.70;;;10.10;;
57335;SDS011;43171;50.994;18.204;2023-05-19T19:37:35;18.90;;;9.40;;
57335;SDS011;43171;50.994;18.204;2023-05-19T19:40:00;30.60;;;21.50;;
57335;SDS011;43171;50.994;18.204;2023-05-19T19:49:46;26.40;;;14.50;;
57335;SDS011;43171;50.994;18.204;2023-05-19T19:59:30;17.60;;;12.00;;
57335;SDS011;43171;50.994;18.204;2023-05-19T20:09:14;18.40;;;11.70;;
57335;SDS011;43171;50.994;18.204;2023-05-19T20:18:56;18.60;;;13.70;;
57335;SDS011;43171;50.994;18.204;2023-05-19T20:28:41;13.00;;;9.70;;
57335;SDS011;43171;50.994;18.204;2023-05-19T20:38:24;19.10;;;11.60;;
57335;SDS011;43171;50.994;18.204;2023-05-19T20:48:08;20.00;;;11.90;;
57335;SDS011;43171;50.994;18.204;2023-05-19T20:57:52;15.90;;;11.70;;
57335;SDS011;43171;50.994;18.204;2023-05-19T21:07:34;22.50;;;8.30;;
57335;SDS011;43171;50.994;18.204;2023-05-19T21:17:23;14.10;;;9.60;;
57335;SDS011;43171;50.994;18.204;2023-05-19T21:19:49;23.40;;;16.20;;
57335;SDS011;43171;50.994;18.204;2023-05-19T21:29:34;17.50;;;12.00;;
57335;SDS011;43171;50.994;18.204;2023-05-19T21:39:15;16.10;;;10.10;;
57335;SDS011;43171;50.994;18.204;2023-05-19T21:48:58;14.60;;;11.20;;
57335;SDS011;43171;50.994;18.204;2023-05-19T21:58:41;13.90;;;11.00;;
57335;SDS011;43171;50.994;18.204;2023-05-19T22:01:06;27.60;;;18.00;;
57335;SDS011;43171;50.994;18.204;2023-05-19T22:10:49;18.30;;;13.10;;
57335;SDS011;43171;50.994;18.204;2023-05-19T22:20:35;19.30;;;13.00;;
57335;SDS011;43171;50.994;18.204;2023-05-19T22:30:19;20.10;;;13.00;;
57335;SDS011;43171;50.994;18.204;2023-05-19T22:40:02;14.90;;;8.80;;
57335;SDS011;43171;50.994;18.204;2023-05-19T22:49:48;16.10;;;10.50;;
57335;SDS011;43171;50.994;18.204;2023-05-19T22:59:31;16.70;;;10.10;;
57335;SDS011;43171;50.994;18.204;2023-05-19T23:09:13;16.30;;;11.30;;
57335;SDS011;43171;50.994;18.204;2023-05-19T23:18:56;21.00;;;9.70;;
57335;SDS011;43171;50.994;18.204;2023-05-19T23:28:42;15.60;;;9.80;;
57335;SDS011;43171;50.994;18.204;2023-05-19T23:38:29;20.40;;;11.70;;
57335;SDS011;43171;50.994;18.204;2023-05-19T23:40:54;21.00;;;15.40;;
57335;SDS011;43171;50.994;18.204;2023-05-19T23:50:36;8.80;;;5.00;;
57335;SDS011;43171;50.994;18.204;2023-05-19T23:53:02;24.20;;;17.00;;
